createdAt,value
2022-08-28T00:01:38.503Z,20.02
2022-08-28T00:04:07.639Z,18.45
2022-08-28T00:06:36.732Z,17.50
2022-08-28T00:09:08.158Z,18.00
2022-08-28T00:11:40.768Z,18.52
2022-08-28T00:14:11.811Z,19.42
2022-08-28T00:16:42.605Z,18.90
2022-08-28T00:19:12.622Z,17.88
2022-08-28T00:21:41.917Z,18.42
2022-08-28T00:24:11.066Z,18.20
2022-08-28T00:26:58.284Z,18.20
2022-08-28T00:29:27.362Z,17.80
2022-08-28T00:31:57.889Z,17.55
2022-08-28T00:34:33.425Z,18.23
2022-08-28T00:37:03.222Z,19.23
2022-08-28T00:39:32.382Z,18.15
2022-08-28T00:42:01.680Z,18.50
2022-08-28T00:44:31.430Z,18.00
2022-08-28T00:47:02.245Z,18.88
2022-08-28T00:49:35.942Z,18.75
2022-08-28T00:52:11.966Z,19.35
2022-08-28T00:54:58.413Z,19.42
2022-08-28T00:57:32.172Z,20.02
2022-08-28T01:00:01.676Z,19.02
2022-08-28T01:02:32.344Z,18.55
2022-08-28T01:05:01.514Z,18.88
2022-08-28T01:07:31.029Z,17.30
2022-08-28T01:10:01.093Z,18.52
2022-08-28T01:12:33.373Z,17.13
2022-08-28T01:15:10.735Z,17.67
2022-08-28T01:17:49.088Z,17.85
2022-08-28T01:20:23.337Z,17.13
2022-08-28T01:23:03.323Z,17.33
2022-08-28T01:25:36.635Z,17.83
2022-08-28T01:28:10.420Z,18.48
2022-08-28T01:30:41.239Z,17.35
2022-08-28T01:33:10.261Z,17.77
2022-08-28T01:35:45.052Z,18.98
2022-08-28T01:38:20.072Z,18.90
2022-08-28T01:43:26.298Z,18.55
2022-08-28T01:45:57.763Z,17.15
2022-08-28T01:48:28.123Z,18.33
2022-08-28T01:50:57.383Z,19.50
2022-08-28T01:53:32.666Z,18.55
2022-08-28T01:56:06.074Z,18.90
2022-08-28T01:58:38.396Z,17.42
2022-08-28T02:01:11.787Z,18.08
2022-08-28T02:03:43.357Z,18.77
2022-08-28T02:06:16.057Z,18.23
2022-08-28T02:08:45.637Z,19.10
2022-08-28T02:11:16.685Z,19.00
2022-08-28T02:13:45.892Z,18.17
2022-08-28T02:16:20.607Z,19.92
2022-08-28T02:18:50.267Z,19.48
2022-08-28T02:21:19.316Z,19.42
2022-08-28T02:23:48.932Z,18.33
2022-08-28T02:26:19.812Z,19.00
2022-08-28T02:28:50.072Z,18.73
2022-08-28T02:31:19.282Z,16.85
2022-08-28T02:33:48.356Z,16.80
2022-08-28T02:36:18.439Z,17.58
2022-08-28T02:38:48.407Z,16.15
2022-08-28T02:41:18.919Z,15.98
2022-08-28T02:43:49.070Z,16.73
2022-08-28T02:46:18.466Z,15.02
2022-08-28T02:48:47.559Z,15.60
2022-08-28T02:51:16.963Z,14.63
2022-08-28T02:53:46.068Z,14.50
2022-08-28T02:56:15.195Z,14.18
2022-08-28T02:58:45.998Z,16.10
2022-08-28T03:01:15.711Z,14.45
2022-08-28T03:03:45.100Z,14.15
2022-08-28T03:06:14.999Z,14.52
2022-08-28T03:08:45.076Z,12.45
2022-08-28T03:16:18.538Z,11.50
2022-08-28T03:18:47.925Z,12.35
2022-08-28T03:21:17.013Z,11.70
2022-08-28T03:23:47.302Z,12.27
2022-08-28T03:26:19.619Z,12.02
2022-08-28T03:28:52.026Z,11.75
2022-08-28T03:31:25.317Z,12.10
2022-08-28T03:33:54.784Z,11.68
2022-08-28T03:36:27.743Z,11.43
2022-08-28T03:39:00.240Z,12.02
2022-08-28T03:41:32.007Z,13.00
2022-08-28T03:44:03.183Z,13.43
2022-08-28T03:46:35.247Z,11.93
2022-08-28T03:49:06.117Z,12.75
2022-08-28T03:51:36.415Z,12.65
2022-08-28T03:54:05.976Z,12.68
2022-08-28T03:56:35.226Z,11.35
2022-08-28T03:59:05.571Z,11.77
2022-08-28T04:01:38.343Z,12.02
2022-08-28T04:04:07.755Z,11.82
2022-08-28T04:06:36.952Z,12.82
2022-08-28T04:09:07.269Z,11.75
2022-08-28T04:11:40.748Z,12.88
2022-08-28T04:14:10.212Z,12.25
2022-08-28T04:16:41.613Z,12.60
2022-08-28T04:19:10.873Z,13.23
2022-08-28T04:21:40.372Z,13.00
2022-08-28T04:24:09.889Z,13.18
2022-08-28T04:26:39.326Z,13.27
2022-08-28T04:29:09.194Z,14.20
2022-08-28T04:31:38.351Z,13.50
2022-08-28T04:34:10.996Z,13.35
2022-08-28T04:36:40.480Z,12.00
2022-08-28T04:39:11.166Z,12.68
2022-08-28T04:41:40.580Z,13.30
2022-08-28T04:44:10.081Z,13.00
2022-08-28T04:46:39.722Z,14.10
2022-08-28T04:49:12.138Z,13.52
2022-08-28T04:51:42.307Z,13.82
2022-08-28T04:54:11.903Z,13.07
2022-08-28T04:56:42.044Z,13.45
2022-08-28T04:59:11.931Z,13.65
2022-08-28T05:01:42.853Z,14.00
2022-08-28T05:04:14.350Z,13.02
2022-08-28T05:06:46.453Z,12.82
2022-08-28T05:09:17.561Z,13.35
2022-08-28T05:11:47.946Z,13.35
2022-08-28T05:14:17.825Z,13.63
2022-08-28T05:16:49.133Z,13.60
2022-08-28T05:19:21.611Z,14.40
2022-08-28T05:21:51.615Z,13.20
2022-08-28T05:24:21.379Z,14.27
2022-08-28T05:26:50.930Z,14.70
2022-08-28T05:29:19.886Z,14.13
2022-08-28T05:31:49.614Z,13.30
2022-08-28T05:34:20.796Z,13.68
2022-08-28T05:36:50.230Z,13.20
2022-08-28T05:39:19.824Z,13.07
2022-08-28T05:41:48.829Z,13.82
2022-08-28T05:44:19.719Z,14.18
2022-08-28T05:46:51.115Z,13.73
2022-08-28T05:49:21.827Z,13.65
2022-08-28T05:51:52.487Z,14.80
2022-08-28T05:54:21.729Z,13.43
2022-08-28T05:56:50.876Z,14.18
2022-08-28T05:59:19.922Z,13.82
2022-08-28T06:01:51.077Z,12.63
2022-08-28T06:04:26.505Z,13.27
2022-08-28T06:06:57.316Z,12.45
2022-08-28T06:09:30.093Z,12.63
2022-08-28T06:12:02.998Z,13.10
2022-08-28T06:14:33.546Z,13.18
2022-08-28T06:17:05.204Z,12.85
2022-08-28T06:19:41.291Z,13.05
2022-08-28T06:22:14.799Z,12.52
2022-08-28T06:24:43.917Z,12.60
2022-08-28T06:27:13.302Z,12.60
2022-08-28T06:29:42.362Z,13.70
2022-08-28T06:32:11.502Z,11.95
2022-08-28T06:34:42.419Z,12.13
2022-08-28T06:37:11.652Z,10.65
2022-08-28T06:39:40.682Z,10.90
2022-08-28T06:42:10.627Z,10.40
2022-08-28T06:44:40.634Z,11.10
2022-08-28T06:47:11.279Z,10.75
2022-08-28T06:49:42.033Z,10.57
2022-08-28T06:52:10.924Z,10.60
2022-08-28T06:54:40.031Z,10.75
2022-08-28T06:57:15.081Z,10.90
2022-08-28T06:59:44.389Z,10.63
2022-08-28T07:02:13.577Z,11.32
2022-08-28T07:04:44.440Z,11.70
2022-08-28T07:07:31.312Z,11.35
2022-08-28T07:10:02.117Z,11.18
2022-08-28T07:12:31.974Z,10.80
2022-08-28T07:15:01.816Z,10.18
2022-08-28T07:17:32.983Z,10.27
2022-08-28T07:20:03.917Z,10.48
2022-08-28T07:22:35.891Z,10.25
2022-08-28T07:25:06.066Z,10.75
2022-08-28T07:27:35.105Z,10.25
2022-08-28T07:30:04.473Z,10.77
2022-08-28T07:32:36.318Z,10.60
2022-08-28T07:35:07.889Z,10.25
2022-08-28T07:37:37.798Z,10.75
2022-08-28T07:40:12.574Z,9.52
2022-08-28T07:43:01.453Z,11.32
2022-08-28T07:45:31.382Z,11.05
2022-08-28T07:48:00.534Z,10.25
2022-08-28T07:50:31.885Z,10.45
2022-08-28T07:53:01.163Z,10.10
2022-08-28T07:55:32.004Z,10.55
2022-08-28T07:58:01.791Z,10.15
2022-08-28T08:00:31.040Z,9.40
2022-08-28T08:03:00.215Z,9.77
2022-08-28T08:05:30.707Z,9.75
2022-08-28T08:08:00.262Z,9.75
2022-08-28T08:10:33.924Z,9.88
2022-08-28T08:13:03.949Z,9.93
2022-08-28T08:15:36.033Z,10.20
2022-08-28T08:18:05.645Z,10.38
2022-08-28T08:20:36.246Z,9.68
2022-08-28T08:23:05.226Z,9.63
2022-08-28T08:25:34.649Z,9.82
2022-08-28T08:28:03.992Z,10.20
2022-08-28T08:30:32.912Z,9.90
2022-08-28T08:33:02.213Z,10.00
2022-08-28T08:35:31.246Z,10.32
2022-08-28T08:38:02.963Z,10.63
2022-08-28T08:40:32.829Z,9.85
2022-08-28T08:43:04.141Z,9.73
2022-08-28T08:45:35.732Z,8.82
2022-08-28T08:48:05.395Z,8.93
2022-08-28T08:50:36.871Z,8.45
2022-08-28T08:53:20.804Z,8.07
2022-08-28T08:55:52.315Z,9.07
2022-08-28T08:58:29.232Z,8.52
2022-08-28T09:01:04.996Z,8.77
2022-08-28T09:03:53.039Z,9.10
2022-08-28T09:06:31.133Z,8.82
2022-08-28T09:09:03.895Z,8.98
2022-08-28T09:11:45.617Z,9.00
2022-08-28T09:14:29.594Z,8.68
2022-08-28T09:17:00.602Z,8.65
2022-08-28T09:19:31.233Z,8.98
2022-08-28T09:22:00.579Z,8.77
2022-08-28T09:24:33.057Z,8.65
2022-08-28T09:27:05.789Z,8.68
2022-08-28T09:29:37.429Z,8.27
2022-08-28T09:32:19.690Z,8.82
2022-08-28T09:35:06.022Z,9.35
2022-08-28T09:37:38.263Z,9.07
2022-08-28T09:40:25.190Z,8.23
2022-08-28T09:43:22.359Z,10.00
2022-08-28T09:45:58.270Z,8.68
2022-08-28T09:48:37.023Z,9.35
2022-08-28T09:51:08.009Z,9.15
2022-08-28T09:53:42.997Z,8.68
2022-08-28T09:56:19.005Z,8.70
2022-08-28T09:58:53.502Z,8.40
2022-08-28T10:01:40.726Z,8.25
2022-08-28T10:04:30.301Z,8.93
2022-08-28T10:07:05.245Z,8.40
2022-08-28T10:09:46.807Z,8.30
2022-08-28T10:12:32.694Z,8.48
2022-08-28T10:15:10.461Z,8.07
2022-08-28T10:17:50.260Z,8.02
2022-08-28T10:20:31.308Z,7.32
2022-08-28T10:23:14.454Z,7.60
2022-08-28T10:25:55.299Z,7.45
2022-08-28T10:28:41.736Z,7.03
2022-08-28T10:31:16.835Z,7.07
2022-08-28T10:34:04.785Z,7.20
2022-08-28T10:36:35.986Z,6.00
2022-08-28T10:39:25.452Z,6.43
2022-08-28T10:41:59.763Z,6.13
2022-08-28T10:44:39.909Z,6.93
2022-08-28T10:47:11.056Z,6.63
2022-08-28T10:49:42.919Z,5.93
2022-08-28T10:52:17.443Z,6.20
2022-08-28T10:54:51.754Z,6.30
2022-08-28T10:57:34.018Z,6.10
2022-08-28T11:00:12.282Z,6.13
2022-08-28T11:02:45.207Z,5.82
2022-08-28T11:05:15.138Z,6.15
2022-08-28T11:07:50.774Z,6.35
2022-08-28T11:10:24.893Z,6.18
2022-08-28T11:12:54.605Z,7.22
2022-08-28T11:15:52.618Z,6.75
2022-08-28T11:19:00.863Z,6.57
2022-08-28T11:21:33.096Z,6.63
2022-08-28T11:24:07.372Z,6.90
2022-08-28T11:26:53.156Z,6.50
2022-08-28T11:30:01.603Z,6.05
2022-08-28T11:33:00.110Z,6.55
2022-08-28T11:35:43.596Z,6.20
2022-08-28T11:38:15.585Z,6.55
2022-08-28T11:40:58.036Z,6.80
2022-08-28T11:43:37.540Z,6.35
2022-08-28T11:46:17.498Z,6.75
2022-08-28T11:48:52.619Z,7.00
2022-08-28T11:51:54.267Z,6.70
2022-08-28T11:54:39.256Z,7.30
2022-08-28T11:57:15.499Z,8.00
2022-08-28T12:00:02.806Z,8.27
2022-08-28T12:03:17.060Z,8.30
2022-08-28T12:05:50.486Z,8.80
2022-08-28T12:09:11.994Z,9.23
2022-08-28T12:11:55.021Z,10.25
2022-08-28T12:15:06.015Z,9.95
2022-08-28T12:17:52.531Z,11.27
2022-08-28T12:20:44.624Z,10.63
2022-08-28T12:23:39.927Z,32.70
2022-08-28T12:26:21.039Z,11.25
2022-08-28T12:28:53.223Z,14.25
2022-08-28T12:32:06.072Z,18.98
2022-08-28T12:34:50.958Z,15.57
2022-08-28T12:37:43.963Z,14.75
2022-08-28T12:40:26.171Z,9.60
2022-08-28T12:42:58.843Z,8.98
2022-08-28T12:45:32.024Z,8.60
2022-08-28T12:48:05.564Z,9.13
2022-08-28T12:50:38.364Z,9.20
2022-08-28T12:53:13.416Z,8.88
2022-08-28T12:55:45.554Z,9.40
2022-08-28T12:58:29.031Z,9.90
2022-08-28T13:01:00.559Z,10.25
2022-08-28T13:03:30.572Z,10.75
2022-08-28T13:06:05.143Z,11.38
2022-08-28T13:08:35.835Z,11.32
2022-08-28T13:11:06.992Z,11.85
2022-08-28T13:13:40.207Z,12.05
2022-08-28T13:16:11.252Z,12.15
2022-08-28T13:18:45.364Z,12.80
2022-08-28T13:21:37.311Z,12.55
2022-08-28T13:24:29.151Z,11.82
2022-08-28T13:27:06.895Z,12.77
2022-08-28T13:29:37.956Z,14.85
2022-08-28T13:32:09.740Z,13.02
2022-08-28T13:34:48.076Z,13.82
2022-08-28T13:37:44.212Z,13.75
2022-08-28T13:40:38.181Z,14.27
2022-08-28T13:43:11.157Z,12.85
2022-08-28T13:45:43.945Z,13.07
2022-08-28T13:48:16.878Z,13.52
2022-08-28T13:50:49.141Z,13.20
2022-08-28T13:53:20.273Z,12.80
2022-08-28T13:55:51.933Z,11.32
2022-08-28T13:58:23.472Z,12.07
2022-08-28T14:00:53.387Z,11.55
2022-08-28T14:03:38.211Z,8.43
2022-08-28T14:06:11.980Z,7.80
2022-08-28T14:08:43.412Z,6.33
2022-08-28T14:11:14.473Z,6.07
2022-08-28T14:13:47.294Z,6.00
2022-08-28T14:16:26.268Z,6.30
2022-08-28T14:18:56.114Z,6.10
2022-08-28T14:21:25.608Z,6.10
2022-08-28T14:23:55.014Z,5.28
2022-08-28T14:26:24.171Z,5.55
2022-08-28T14:29:04.066Z,5.47
2022-08-28T14:31:37.072Z,4.93
2022-08-28T14:34:07.023Z,4.20
2022-08-28T14:36:36.760Z,4.90
2022-08-28T14:39:08.114Z,12.05
2022-08-28T14:41:37.836Z,40.10
2022-08-28T14:44:09.194Z,37.55
2022-08-28T14:46:39.099Z,5.93
2022-08-28T14:49:13.315Z,31.80
2022-08-28T14:51:44.543Z,36.38
2022-08-28T14:54:16.274Z,6.88
2022-08-28T14:56:47.293Z,13.40
2022-08-28T14:59:24.496Z,8.77
2022-08-28T15:01:55.740Z,10.05
2022-08-28T15:04:27.170Z,7.60
2022-08-28T15:06:59.601Z,6.80
2022-08-28T15:09:29.223Z,7.13
2022-08-28T15:11:58.508Z,6.93
2022-08-28T15:14:29.151Z,15.40
2022-08-28T15:16:58.581Z,11.43
2022-08-28T15:19:30.039Z,8.20
2022-08-28T15:22:00.289Z,6.20
2022-08-28T15:24:34.261Z,4.82
2022-08-28T15:27:04.105Z,4.30
2022-08-28T15:29:34.743Z,4.30
2022-08-28T15:32:05.737Z,4.28
2022-08-28T15:34:35.083Z,4.68
2022-08-28T15:37:07.844Z,3.80
2022-08-28T15:39:54.368Z,3.75
2022-08-28T15:42:24.116Z,3.65
2022-08-28T15:44:56.434Z,3.35
2022-08-28T15:47:27.400Z,3.03
2022-08-28T15:49:57.340Z,3.15
2022-08-28T15:52:26.589Z,2.38
2022-08-28T15:54:55.639Z,2.67
2022-08-28T15:57:24.903Z,2.50
2022-08-28T15:59:55.623Z,2.53
2022-08-28T16:02:26.584Z,2.25
2022-08-28T16:04:56.206Z,2.70
2022-08-28T16:07:25.899Z,2.50
2022-08-28T16:09:55.130Z,2.60
2022-08-28T16:12:25.522Z,2.38
2022-08-28T16:14:56.175Z,2.55
2022-08-28T16:17:25.448Z,2.20
2022-08-28T16:19:55.008Z,2.58
2022-08-28T16:22:24.506Z,2.78
2022-08-28T16:24:53.588Z,3.05
2022-08-28T16:27:22.932Z,2.63
2022-08-28T16:29:52.961Z,2.83
2022-08-28T16:32:23.970Z,3.20
2022-08-28T16:34:53.553Z,3.38
2022-08-28T16:37:23.283Z,3.33
2022-08-28T16:39:56.100Z,3.10
2022-08-28T16:42:27.676Z,2.97
2022-08-28T16:45:00.841Z,3.80
2022-08-28T16:47:33.179Z,3.30
2022-08-28T16:50:06.201Z,3.90
2022-08-28T16:52:38.042Z,3.70
2022-08-28T16:55:09.398Z,3.50
2022-08-28T16:57:40.278Z,3.40
2022-08-28T17:00:13.650Z,4.35
2022-08-28T17:02:46.648Z,4.20
2022-08-28T17:05:17.598Z,4.03
2022-08-28T17:07:47.561Z,3.97
2022-08-28T17:10:19.724Z,3.92
2022-08-28T17:12:49.308Z,4.10
2022-08-28T17:15:19.831Z,4.28
2022-08-28T17:17:52.841Z,3.92
2022-08-28T17:20:39.411Z,4.25
2022-08-28T17:23:09.016Z,3.78
2022-08-28T17:25:38.339Z,4.15
2022-08-28T17:28:07.795Z,4.10
2022-08-28T17:30:36.978Z,4.22
2022-08-28T17:33:08.246Z,4.13
2022-08-28T17:35:41.902Z,4.57
2022-08-28T17:38:11.634Z,4.63
2022-08-28T17:40:41.020Z,4.97
2022-08-28T17:43:10.256Z,4.65
2022-08-28T17:45:39.325Z,4.75
2022-08-28T17:48:10.651Z,4.70
2022-08-28T17:50:41.023Z,4.35
2022-08-28T17:53:10.662Z,4.75
2022-08-28T17:55:39.712Z,4.40
2022-08-28T17:58:08.778Z,4.15
2022-08-28T18:00:38.321Z,4.75
2022-08-28T18:03:07.689Z,4.13
2022-08-28T18:05:38.557Z,4.53
2022-08-28T18:08:08.370Z,4.65
2022-08-28T18:10:37.560Z,4.78
2022-08-28T18:13:07.858Z,4.80
2022-08-28T18:15:40.221Z,4.70
2022-08-28T18:20:44.701Z,4.93
2022-08-28T18:23:13.803Z,4.53
2022-08-28T18:25:50.622Z,4.72
2022-08-28T18:28:22.631Z,4.80
2022-08-28T18:30:53.945Z,4.38
2022-08-28T18:33:30.994Z,4.63
2022-08-28T18:36:02.404Z,5.20
2022-08-28T18:38:35.133Z,4.90
2022-08-28T18:41:05.281Z,4.68
2022-08-28T18:43:35.070Z,5.35
2022-08-28T18:46:06.203Z,6.05
2022-08-28T18:48:37.866Z,5.40
2022-08-28T18:51:10.041Z,5.07
2022-08-28T18:53:42.326Z,4.78
2022-08-28T18:56:13.047Z,5.18
2022-08-28T18:58:43.199Z,4.53
2022-08-28T19:01:12.547Z,4.63
2022-08-28T19:03:41.716Z,5.13
2022-08-28T19:06:15.638Z,4.88
2022-08-28T19:08:46.118Z,4.35
2022-08-28T19:11:17.209Z,4.90
2022-08-28T19:13:46.313Z,4.70
2022-08-28T19:16:19.064Z,4.50
2022-08-28T19:18:48.918Z,4.85
2022-08-28T19:21:24.986Z,5.28
2022-08-28T19:23:55.897Z,4.32
2022-08-28T19:26:26.213Z,4.47
2022-08-28T19:28:56.109Z,4.70
2022-08-28T19:31:26.923Z,5.18
2022-08-28T19:33:57.079Z,4.47
2022-08-28T19:36:30.213Z,4.35
2022-08-28T19:39:01.104Z,4.57
2022-08-28T19:41:30.409Z,4.40
2022-08-28T19:43:59.347Z,4.60
2022-08-28T19:46:29.811Z,4.28
2022-08-28T19:49:01.296Z,4.57
2022-08-28T19:51:32.069Z,4.20
2022-08-28T19:54:03.184Z,3.97
2022-08-28T19:56:34.656Z,4.22
2022-08-28T19:59:06.230Z,4.40
2022-08-28T20:01:38.559Z,4.63
2022-08-28T20:04:09.529Z,4.75
2022-08-28T20:06:40.609Z,4.50
2022-08-28T20:09:12.828Z,4.65
2022-08-28T20:11:45.039Z,4.60
2022-08-28T20:14:15.306Z,4.72
2022-08-28T20:16:47.222Z,4.05
2022-08-28T20:19:17.016Z,4.38
2022-08-28T20:21:50.011Z,4.78
2022-08-28T20:24:24.096Z,5.38
2022-08-28T20:26:54.355Z,4.82
2022-08-28T20:29:24.374Z,5.05
2022-08-28T20:31:54.198Z,5.25
2022-08-28T20:34:24.573Z,5.45
2022-08-28T20:36:55.543Z,5.07
2022-08-28T20:39:25.275Z,5.18
2022-08-28T20:41:54.301Z,5.38
2022-08-28T20:44:23.898Z,5.03
2022-08-28T20:46:53.754Z,5.55
2022-08-28T20:49:25.375Z,5.32
2022-08-28T20:51:57.646Z,5.57
2022-08-28T20:54:30.218Z,4.97
2022-08-28T20:57:02.452Z,5.43
2022-08-28T20:59:37.228Z,5.43
2022-08-28T21:02:12.319Z,5.28
2022-08-28T21:04:43.298Z,5.35
2022-08-28T21:07:15.664Z,5.40
2022-08-28T21:10:05.181Z,5.38
2022-08-28T21:12:36.818Z,5.90
2022-08-28T21:15:06.967Z,5.60
2022-08-28T21:17:38.104Z,5.90
2022-08-28T21:20:10.624Z,6.03
2022-08-28T21:22:42.323Z,6.28
2022-08-28T21:25:15.381Z,5.22
2022-08-28T21:27:45.371Z,5.72
2022-08-28T21:30:18.242Z,6.07
2022-08-28T21:32:49.098Z,5.95
2022-08-28T21:35:20.463Z,5.72
2022-08-28T21:37:51.220Z,6.20
2022-08-28T21:40:22.561Z,5.90
2022-08-28T21:42:51.900Z,5.82
2022-08-28T21:45:22.081Z,5.55
2022-08-28T21:47:51.042Z,5.35
2022-08-28T21:50:22.078Z,5.43
2022-08-28T21:52:52.776Z,5.30
2022-08-28T21:55:22.497Z,5.53
2022-08-28T21:57:51.466Z,5.25
2022-08-28T22:00:23.455Z,5.25
2022-08-28T22:02:52.687Z,5.22
2022-08-28T22:05:22.284Z,5.20
2022-08-28T22:07:52.585Z,5.07
2022-08-28T22:10:23.049Z,5.03
2022-08-28T22:12:52.088Z,5.00
2022-08-28T22:15:21.254Z,4.65
2022-08-28T22:17:50.443Z,5.00
2022-08-28T22:20:20.130Z,4.50
2022-08-28T22:23:06.908Z,5.05
2022-08-28T22:25:40.672Z,4.65
2022-08-28T22:28:11.919Z,4.25
2022-08-28T22:30:41.628Z,3.78
2022-08-28T22:33:11.514Z,4.57
2022-08-28T22:35:40.634Z,4.80
2022-08-28T22:38:11.209Z,4.70
2022-08-28T22:40:41.740Z,3.83
2022-08-28T22:43:10.889Z,4.30
2022-08-28T22:45:39.983Z,4.10
2022-08-28T22:48:10.387Z,4.10
2022-08-28T22:50:39.990Z,3.85
2022-08-28T22:53:09.769Z,4.47
2022-08-28T22:55:43.444Z,4.30
2022-08-28T22:58:14.292Z,4.22
2022-08-28T23:00:43.831Z,4.28
2022-08-28T23:03:13.475Z,3.88
2022-08-28T23:05:42.675Z,3.92
2022-08-28T23:08:11.781Z,4.03
2022-08-28T23:10:58.695Z,4.47
2022-08-28T23:13:28.947Z,4.32
2022-08-28T23:15:58.765Z,4.10
2022-08-28T23:18:28.160Z,4.32
2022-08-28T23:20:57.802Z,3.75
2022-08-28T23:23:27.330Z,4.28
2022-08-28T23:25:57.793Z,3.88
2022-08-28T23:28:27.022Z,3.88
2022-08-28T23:30:56.446Z,3.95
2022-08-28T23:33:25.541Z,4.25
2022-08-28T23:35:54.813Z,4.05
2022-08-28T23:38:24.427Z,3.92
2022-08-28T23:40:56.780Z,4.40
2022-08-28T23:43:26.487Z,4.20
2022-08-28T23:45:56.290Z,4.10
2022-08-28T23:48:26.024Z,4.28
2022-08-28T23:50:55.834Z,4.45
2022-08-28T23:53:24.872Z,4.03
2022-08-28T23:55:53.861Z,4.28
2022-08-28T23:58:25.836Z,3.78
